x

Capers Nearshore (cap 2) (41029) Weather Station

8:08am - Wed 2nd Sep 2015 All times are EDT. -4 hours from GMT.

  • Wind
    9mph, 11mph gusts
  • Air Temp 79°f
  • Sea Pressure 1019mb
  • Capers Nearshore (cap 2)
  • Capers Nearshore (cap 2)

More Historic Weather Station data

Upgrade to MSW Pro to gain access to the past 30 days of data for over 8000 Wavebouys and Weather Stations around the globe.

Join Pro

Comparision Forecast

View Surf forecast
   
Wed 09/02 8:08am 9 11 mph 1019mb 79f
7:08am 9 13 mph 1018.8mb 79f
6:08am 9 13 mph 1018.2mb 80f
5:08am 7 9 mph 1018mb 80f
4:08am 7 9 mph 1018mb 82f
3:08am 7
mph
1017.9mb 82f
2:08am 7 11 mph 1018.4mb 82f
1:08am 9 11 mph 1018.8mb 82f
12:08am 9 11 mph 1018.9mb 82f
Tue 09/01 11:08pm 9 11 mph 1018.7mb 82f
10:08pm 9 13 mph 1018.8mb 82f
9:08pm 11 13 mph 1018.5mb 82f
8:08pm 11 13 mph 1018.2mb 82f
7:08pm 11 16 mph 1018.2mb 82f
6:08pm 11 13 mph 1018.1mb 82f
5:08pm 11 13 mph 1018.6mb 82f
4:08pm 11 13 mph 1018.7mb 82f
3:08pm 9 11 mph 1019.1mb 83f
2:08pm 7 9 mph 1019.2mb 82f
1:08pm 4 7 mph 1019.5mb 82f
12:08pm 2 4 mph 1019.8mb 83f
11:08am 7 9 mph 1019.8mb 81f
10:08am 7 9 mph 1020.1mb 80f
9:08am 7 9 mph 1019.9mb 79f
8:08am 7 11 mph 1019.8mb 78f
7:08am 9 13 mph 1019.1mb 77f
6:08am 9 13 mph 1018.3mb 79f
5:08am 7 9 mph 1017.8mb 79f
4:08am 4 7 mph 1017.9mb 80f
3:08am 4 7 mph 1018.3mb 80f
2:08am 4 9 mph 1018.6mb 80f
1:08am 7 9 mph 1018.6mb 81f
12:08am 4 7 mph 1018.8mb 82f
Mon 08/31 11:08pm 7 9 mph 1018.7mb 82f
10:08pm 2 7 mph 1018.6mb 82f
9:08pm 7 11 mph 1017.7mb 82f
8:08pm 9 11 mph 1017.5mb 82f
6:08pm 7 11 mph 1016.7mb 85f
5:08pm 4 9 mph 1016.8mb 84f
4:08pm 7 9 mph 1016.8mb 82f
3:08pm 4 7 mph 1017.2mb 81f
2:08pm 4 9 mph 1017.8mb 80f
1:08pm 4 9 mph 1018.4mb 78f
12:08pm 9 13 mph 1018mb 77f
9:08am 20 27 mph 1017.7mb 79f
8:08am 22 29 mph 1017.8mb 78f
7:08am 22 29 mph 1016.5mb 82f
6:08am 20 29 mph 1016.5mb 82f
5:08am 18 25 mph 1016.7mb 81f
4:08am 20 38 mph 1017.2mb 80f
3:08am 13 20 mph 1017.8mb 81f
2:08am 16 20 mph 1018mb 81f
1:08am 16 22 mph 1017.9mb 80f
12:08am 18 25 mph 1018.5mb 81f
Sun 08/30 11:08pm 20 25 mph 1018.7mb 80f
10:08pm 20 27 mph 1019mb 80f
9:08pm 20 27 mph 1018.8mb 79f
8:08pm 20 27 mph 1019.3mb 78f
7:08pm 22 29 mph 1019.1mb 78f
6:08pm 18 25 mph 1019.3mb 78f
3:08am 9 13 mph 1018.9mb 81f
2:08am 11 16 mph 1019.1mb 80f
1:08am 11 16 mph 1020.1mb 81f
12:08am 11 13 mph 1020.3mb 81f
Sat 08/29 11:08pm 11 16 mph 1020.3mb 81f
10:08pm 11 16 mph 1020.1mb 81f
9:08pm 13 18 mph 1019.7mb 81f
8:08pm 11 16 mph 1019.5mb 81f
7:08pm 13 16 mph 1019.3mb 81f
6:08pm 13 18 mph 1019.3mb 81f
5:08pm 16 20 mph 1019.5mb 81f
4:08pm 16 20 mph 1020.1mb 81f
3:08pm 13 18 mph 1021.1mb 80f
2:08pm 16 20 mph 1021.4mb 80f